createdAt,value
2023-04-06T00:28:15.777Z,10.43
2023-04-06T00:33:19.696Z,9.75
2023-04-06T00:38:26.452Z,8.82
2023-04-06T00:40:58.780Z,10.05
2023-04-06T00:43:31.025Z,8.90
2023-04-06T00:46:03.212Z,8.30
2023-04-06T00:48:35.352Z,8.13
2023-04-06T00:53:41.826Z,7.38
2023-04-06T00:56:13.876Z,12.23
2023-04-06T00:58:46.025Z,8.80
2023-04-06T01:03:51.275Z,8.57
2023-04-06T01:06:26.248Z,8.43
2023-04-06T01:08:58.306Z,8.48
2023-04-06T01:11:31.032Z,9.60
2023-04-06T01:14:05.202Z,9.68
2023-04-06T01:16:38.114Z,8.27
2023-04-06T01:19:11.134Z,9.40
2023-04-06T01:21:45.833Z,8.63
2023-04-06T01:24:20.782Z,10.18
2023-04-06T01:26:52.814Z,10.77
2023-04-06T01:29:25.245Z,10.77
2023-04-06T01:31:57.262Z,11.15
2023-04-06T01:34:29.341Z,15.13
2023-04-06T01:37:01.411Z,9.73
2023-04-06T01:39:36.012Z,13.00
2023-04-06T01:42:08.082Z,10.57
2023-04-06T01:44:40.216Z,10.75
2023-04-06T01:49:44.052Z,10.75
2023-04-06T01:52:16.851Z,10.63
2023-04-06T01:54:51.767Z,10.20
2023-04-06T01:57:23.851Z,9.07
2023-04-06T02:02:27.941Z,10.10
2023-04-06T02:05:00.231Z,10.35
2023-04-06T02:07:32.433Z,10.07
2023-04-06T02:10:13.079Z,9.50
2023-04-06T02:12:45.401Z,9.75
2023-04-06T02:15:17.570Z,9.32
2023-04-06T02:20:21.690Z,10.20
2023-04-06T02:22:53.828Z,10.70
2023-04-06T02:28:01.167Z,11.38
2023-04-06T02:33:05.994Z,12.40
2023-04-06T02:35:38.059Z,15.15
2023-04-06T02:40:44.569Z,11.48
2023-04-06T02:43:18.159Z,17.52
2023-04-06T02:45:50.598Z,12.18
2023-04-06T02:48:22.875Z,12.52
2023-04-06T02:50:54.912Z,10.95
2023-04-06T02:53:27.261Z,13.20
2023-04-06T02:56:01.926Z,12.30
2023-04-06T02:58:33.985Z,12.05
2023-04-06T03:03:38.316Z,15.23
2023-04-06T03:06:10.656Z,13.85
2023-04-06T03:08:42.722Z,12.48
2023-04-06T03:13:49.161Z,10.98
2023-04-06T03:16:21.375Z,12.25
2023-04-06T03:18:53.561Z,10.70
2023-04-06T03:21:25.564Z,13.43
2023-04-06T03:23:57.590Z,13.27
2023-04-06T03:26:32.203Z,10.85
2023-04-06T03:29:04.238Z,17.27
2023-04-06T03:31:36.434Z,14.20
2023-04-06T03:34:08.633Z,12.15
2023-04-06T03:36:40.729Z,12.77
2023-04-06T03:41:48.224Z,13.50
2023-04-06T03:44:20.910Z,12.43
2023-04-06T03:46:53.211Z,12.57
2023-04-06T03:49:25.423Z,12.35
2023-04-06T03:54:29.715Z,11.93
2023-04-06T03:57:04.911Z,11.93
2023-04-06T03:59:37.029Z,14.55
2023-04-06T04:04:41.436Z,11.38
2023-04-06T04:07:13.501Z,12.57
2023-04-06T04:09:45.653Z,13.52
2023-04-06T04:12:20.513Z,11.48
2023-04-06T04:14:52.536Z,11.93
2023-04-06T04:17:25.882Z,13.25
2023-04-06T04:19:58.001Z,13.55
2023-04-06T04:22:30.056Z,14.30
2023-04-06T04:27:36.605Z,12.32
2023-04-06T04:30:09.522Z,13.80
2023-04-06T04:32:41.743Z,13.02
2023-04-06T04:35:14.642Z,15.93
2023-04-06T04:37:46.853Z,13.27
2023-04-06T04:40:18.946Z,15.30
2023-04-06T04:45:25.578Z,14.45
2023-04-06T04:50:29.538Z,12.25
2023-04-06T04:53:01.628Z,11.23
2023-04-06T04:55:33.765Z,11.93
2023-04-06T05:00:42.159Z,12.23
2023-04-06T05:03:20.920Z,12.52
2023-04-06T05:05:53.253Z,15.32
2023-04-06T05:08:25.578Z,13.50
2023-04-06T05:10:57.718Z,12.90
2023-04-06T05:16:06.137Z,11.93
2023-04-06T05:18:38.211Z,15.65
2023-04-06T05:23:43.660Z,11.45
2023-04-06T05:26:15.751Z,11.43
2023-04-06T05:28:50.435Z,13.02
2023-04-06T05:31:22.551Z,11.95
2023-04-06T05:36:26.543Z,13.35
2023-04-06T05:38:58.566Z,11.75
2023-04-06T05:41:30.733Z,12.18
2023-04-06T05:46:37.650Z,15.07
2023-04-06T05:49:10.073Z,17.17
2023-04-06T05:51:42.250Z,15.05
2023-04-06T05:54:14.307Z,14.45
2023-04-06T05:56:46.329Z,15.65
2023-04-06T05:59:21.872Z,14.43
2023-04-06T06:01:54.101Z,13.63
2023-04-06T06:06:58.418Z,15.00
2023-04-06T06:09:30.604Z,15.88
2023-04-06T06:14:37.073Z,14.30
2023-04-06T06:17:09.855Z,13.65
2023-04-06T06:19:41.877Z,12.25
2023-04-06T06:22:13.954Z,14.80
2023-04-06T06:24:49.129Z,15.20
2023-04-06T06:27:21.534Z,21.25
2023-04-06T06:29:56.558Z,16.90
2023-04-06T06:32:28.614Z,17.23
2023-04-06T06:37:32.812Z,15.18
2023-04-06T06:40:06.169Z,16.27
2023-04-06T06:42:38.277Z,14.65
2023-04-06T06:47:46.257Z,13.60
2023-04-06T06:52:50.290Z,15.15
2023-04-06T06:57:54.305Z,17.02
2023-04-06T07:00:28.987Z,17.10
2023-04-06T07:03:01.280Z,17.65
2023-04-06T07:05:33.966Z,16.25
2023-04-06T07:08:06.465Z,16.95
2023-04-06T07:10:38.681Z,20.52
2023-04-06T07:13:11.119Z,15.23
2023-04-06T07:15:46.012Z,14.32
2023-04-06T07:18:18.925Z,14.95
2023-04-06T07:20:51.493Z,13.38
2023-04-06T07:23:23.643Z,16.38
2023-04-06T07:25:55.907Z,15.38
2023-04-06T07:28:28.038Z,17.50
2023-04-06T07:31:02.687Z,14.80
2023-04-06T07:33:34.715Z,19.63
2023-04-06T07:38:38.877Z,14.60
2023-04-06T07:41:10.957Z,16.00
2023-04-06T07:46:17.491Z,15.38
2023-04-06T07:48:51.097Z,15.65
2023-04-06T07:51:23.134Z,16.75
2023-04-06T07:56:27.206Z,18.92
2023-04-06T08:04:06.562Z,16.50
2023-04-06T08:06:38.811Z,16.33
2023-04-06T08:09:10.994Z,15.43
2023-04-06T08:11:43.121Z,14.07
2023-04-06T08:14:15.194Z,14.65
2023-04-06T08:16:49.849Z,19.83
2023-04-06T08:19:21.902Z,16.20
2023-04-06T08:21:53.962Z,17.40
2023-04-06T08:24:26.055Z,15.98
2023-04-06T08:26:58.075Z,15.57
2023-04-06T08:29:30.221Z,13.30
2023-04-06T08:32:06.351Z,12.65
2023-04-06T08:34:38.421Z,11.15
2023-04-06T08:37:10.438Z,12.15
2023-04-06T08:39:42.486Z,11.25
2023-04-06T08:42:20.115Z,11.18
2023-04-06T08:44:53.538Z,12.85
2023-04-06T08:47:29.100Z,11.68
2023-04-06T08:50:04.986Z,12.63
2023-04-06T08:52:38.056Z,11.40
2023-04-06T08:55:10.506Z,11.18
2023-04-06T08:57:43.478Z,10.35
2023-04-06T09:00:16.995Z,11.30
2023-04-06T09:02:56.215Z,11.50
2023-04-06T09:05:28.633Z,12.25
2023-04-06T09:08:00.848Z,10.60
2023-04-06T09:10:33.666Z,14.70
2023-04-06T09:13:06.767Z,9.32
2023-04-06T09:15:39.432Z,15.57
2023-04-06T09:18:14.071Z,10.75
2023-04-06T09:20:46.119Z,12.15
2023-04-06T09:23:21.133Z,11.55
2023-04-06T09:25:53.187Z,10.98
2023-04-06T09:28:25.217Z,11.80
2023-04-06T09:30:57.270Z,13.90
2023-04-06T09:33:31.951Z,11.68
2023-04-06T09:36:04.230Z,11.55
2023-04-06T09:38:37.470Z,10.60
2023-04-06T09:41:09.643Z,10.07
2023-04-06T09:43:41.689Z,9.73
2023-04-06T09:46:14.388Z,10.63
2023-04-06T09:48:50.487Z,10.00
2023-04-06T09:51:24.207Z,9.73
2023-04-06T09:54:02.253Z,9.05
2023-04-06T09:59:14.552Z,9.93
2023-04-06T10:01:49.526Z,8.70
2023-04-06T10:04:33.347Z,10.15
2023-04-06T10:07:07.901Z,11.70
2023-04-06T10:09:40.347Z,9.75
2023-04-06T10:12:14.239Z,8.75
2023-04-06T10:14:46.451Z,7.15
2023-04-06T10:17:18.543Z,7.85
2023-04-06T10:19:58.107Z,9.80
2023-04-06T10:25:05.991Z,9.20
2023-04-06T10:27:38.068Z,7.88
2023-04-06T10:30:10.500Z,7.93
2023-04-06T10:32:42.582Z,10.73
2023-04-06T10:37:52.438Z,8.33
2023-04-06T10:40:26.357Z,8.60
2023-04-06T10:43:08.858Z,7.80
2023-04-06T10:45:42.057Z,8.63
2023-04-06T10:48:15.100Z,8.35
2023-04-06T10:50:52.581Z,7.60
2023-04-06T10:53:26.598Z,9.20
2023-04-06T10:55:58.965Z,8.23
2023-04-06T10:58:31.917Z,9.65
2023-04-06T11:01:04.642Z,10.32
2023-04-06T11:03:44.441Z,10.10
2023-04-06T11:06:22.963Z,7.40
2023-04-06T11:08:55.957Z,7.70
2023-04-06T11:11:28.346Z,9.38
2023-04-06T11:14:02.196Z,9.50
2023-04-06T11:16:34.907Z,8.32
2023-04-06T11:19:07.517Z,9.93
2023-04-06T11:21:45.050Z,8.90
2023-04-06T11:24:19.063Z,5.93
2023-04-06T11:26:52.637Z,7.32
2023-04-06T11:29:26.600Z,8.73
2023-04-06T11:32:02.017Z,10.20
2023-04-06T11:34:36.601Z,10.38
2023-04-06T11:37:12.533Z,9.70
2023-04-06T11:39:48.903Z,7.82
2023-04-06T11:42:24.541Z,10.00
2023-04-06T11:44:58.186Z,8.68
2023-04-06T11:47:31.631Z,8.32
2023-04-06T11:52:43.321Z,8.57
2023-04-06T11:55:17.394Z,8.38
2023-04-06T11:57:50.971Z,8.32
2023-04-06T12:00:23.596Z,8.20
2023-04-06T12:03:00.475Z,7.53
2023-04-06T12:05:34.569Z,9.73
2023-04-06T12:08:09.214Z,11.98
2023-04-06T12:10:41.315Z,9.10
2023-04-06T12:13:13.392Z,8.10
2023-04-06T12:15:45.649Z,6.65
2023-04-06T12:18:19.283Z,9.75
2023-04-06T12:20:52.101Z,9.15
2023-04-06T12:23:26.761Z,10.20
2023-04-06T12:25:58.880Z,7.90
2023-04-06T12:28:31.376Z,8.02
2023-04-06T12:31:03.555Z,8.57
2023-04-06T12:33:36.608Z,7.63
2023-04-06T12:36:13.765Z,7.25
2023-04-06T12:38:49.439Z,6.10
2023-04-06T12:41:24.546Z,6.93
2023-04-06T12:44:00.844Z,7.85
2023-04-06T12:46:32.992Z,7.53
2023-04-06T12:49:05.155Z,7.70
2023-04-06T12:51:37.215Z,8.70
2023-04-06T12:54:13.085Z,10.48
2023-04-06T12:56:45.157Z,8.50
2023-04-06T12:59:17.662Z,7.93
2023-04-06T13:01:49.970Z,7.93
2023-04-06T13:04:22.125Z,8.90
2023-04-06T13:06:54.231Z,6.40
2023-04-06T13:09:32.184Z,8.82
2023-04-06T13:12:04.535Z,7.15
2023-04-06T13:14:37.009Z,7.95
2023-04-06T13:17:09.443Z,7.93
2023-04-06T13:19:41.519Z,8.13
2023-04-06T13:22:13.624Z,8.45
2023-04-06T13:24:48.293Z,8.45
2023-04-06T13:27:20.756Z,8.00
2023-04-06T13:29:52.903Z,7.53
2023-04-06T13:32:25.001Z,8.60
2023-04-06T13:34:57.380Z,8.98
2023-04-06T13:37:29.440Z,8.10
2023-04-06T13:40:05.870Z,8.50
2023-04-06T13:42:41.063Z,8.32
2023-04-06T13:45:13.529Z,7.13
2023-04-06T13:47:45.648Z,7.57
2023-04-06T13:50:17.882Z,7.05
2023-04-06T13:52:50.686Z,6.78
2023-04-06T13:55:25.558Z,7.43
2023-04-06T13:57:57.647Z,9.52
2023-04-06T14:00:29.858Z,7.20
2023-04-06T14:03:02.141Z,7.85
2023-04-06T14:05:34.607Z,8.35
2023-04-06T14:08:06.688Z,8.05
2023-04-06T14:10:43.457Z,7.47
2023-04-06T14:13:16.601Z,9.23
2023-04-06T14:15:48.938Z,7.22
2023-04-06T14:18:21.022Z,10.05
2023-04-06T14:20:56.529Z,8.50
2023-04-06T14:23:29.184Z,8.23
2023-04-06T14:26:07.977Z,10.10
2023-04-06T14:28:40.142Z,8.38
2023-04-06T14:31:14.358Z,8.65
2023-04-06T14:33:47.435Z,7.55
2023-04-06T14:36:20.249Z,6.72
2023-04-06T14:38:53.354Z,7.85
2023-04-06T14:41:28.153Z,6.65
2023-04-06T14:44:01.119Z,7.32
2023-04-06T14:46:33.821Z,9.10
2023-04-06T14:49:05.978Z,6.35
2023-04-06T14:51:38.303Z,7.85
2023-04-06T14:54:10.395Z,7.90
2023-04-06T14:56:45.111Z,8.75
2023-04-06T14:59:17.246Z,7.53
2023-04-06T15:01:49.419Z,6.85
2023-04-06T15:04:21.732Z,7.53
2023-04-06T15:06:53.862Z,6.32
2023-04-06T15:09:26.231Z,8.05
2023-04-06T15:12:01.839Z,7.18
2023-04-06T15:14:33.956Z,9.40
2023-04-06T15:17:06.580Z,8.40
2023-04-06T15:19:38.663Z,6.93
2023-04-06T15:22:12.531Z,7.07
2023-04-06T15:24:44.638Z,9.48
2023-04-06T15:27:19.273Z,7.63
2023-04-06T15:29:51.453Z,8.38
2023-04-06T15:32:23.804Z,11.27
2023-04-06T15:34:58.722Z,8.98
2023-04-06T15:37:30.790Z,7.93
2023-04-06T15:40:03.217Z,9.43
2023-04-06T15:42:37.842Z,10.90
2023-04-06T15:45:11.336Z,7.65
2023-04-06T15:47:45.563Z,8.75
2023-04-06T15:50:18.906Z,8.63
2023-04-06T15:52:51.348Z,7.90
2023-04-06T15:55:23.612Z,9.57
2023-04-06T15:57:58.382Z,7.20
2023-04-06T16:00:30.588Z,8.98
2023-04-06T16:03:02.801Z,9.68
2023-04-06T16:05:39.923Z,10.30
2023-04-06T16:08:21.178Z,8.93
2023-04-06T16:10:53.240Z,8.10
2023-04-06T16:13:27.926Z,8.25
2023-04-06T16:16:00.058Z,7.57
2023-04-06T16:18:34.131Z,7.15
2023-04-06T16:21:07.976Z,8.05
2023-04-06T16:23:42.174Z,8.43
2023-04-06T16:26:15.186Z,7.90
2023-04-06T16:28:51.544Z,8.23
2023-04-06T16:31:24.804Z,6.38
2023-04-06T16:33:57.886Z,8.02
2023-04-06T16:36:32.204Z,7.55
2023-04-06T16:39:04.437Z,6.65
2023-04-06T16:41:37.083Z,7.47
2023-04-06T16:44:13.217Z,7.57
2023-04-06T16:46:45.438Z,6.47
2023-04-06T16:49:19.529Z,5.65
2023-04-06T16:51:52.123Z,6.10
2023-04-06T16:54:24.274Z,5.53
2023-04-06T16:56:56.785Z,6.45
2023-04-06T16:59:31.639Z,7.15
2023-04-06T17:02:03.795Z,4.72
2023-04-06T17:04:37.781Z,6.65
2023-04-06T17:07:10.952Z,4.68
2023-04-06T17:09:43.104Z,5.22
2023-04-06T17:12:15.983Z,5.82
2023-04-06T17:14:51.459Z,5.78
2023-04-06T17:17:24.257Z,4.30
2023-04-06T17:19:56.561Z,7.22
2023-04-06T17:22:28.619Z,6.22
2023-04-06T17:25:02.682Z,6.82
2023-04-06T17:27:34.885Z,4.65
2023-04-06T17:30:11.039Z,6.88
2023-04-06T17:32:44.159Z,6.22
2023-04-06T17:35:16.522Z,5.60
2023-04-06T17:37:48.600Z,7.13
2023-04-06T17:40:20.920Z,5.00
2023-04-06T17:42:53.357Z,8.13
2023-04-06T17:45:28.049Z,6.65
2023-04-06T17:48:00.256Z,6.00
2023-04-06T17:50:32.389Z,10.48
2023-04-06T17:53:05.165Z,9.10
2023-04-06T17:55:37.288Z,9.20
2023-04-06T17:58:09.351Z,7.50
2023-04-06T18:00:44.114Z,9.30
2023-04-06T18:03:16.301Z,18.55
2023-04-06T18:05:48.463Z,10.18
2023-04-06T18:08:22.533Z,11.40
2023-04-06T18:10:54.746Z,8.60
2023-04-06T18:13:27.532Z,9.88
2023-04-06T18:16:03.604Z,9.30
2023-04-06T18:18:36.242Z,8.98
2023-04-06T18:21:08.499Z,10.13
2023-04-06T18:23:40.677Z,7.78
2023-04-06T18:26:17.905Z,8.98
2023-04-06T18:28:50.133Z,4.43
2023-04-06T18:31:24.818Z,5.28
2023-04-06T18:33:57.220Z,4.07
2023-04-06T18:36:29.479Z,5.13
2023-04-06T18:39:01.609Z,3.60
2023-04-06T18:41:34.521Z,3.58
2023-04-06T18:44:06.870Z,4.75
2023-04-06T18:46:44.503Z,4.55
2023-04-06T18:49:16.655Z,3.83
2023-04-06T18:51:48.753Z,4.82
2023-04-06T18:54:21.386Z,4.18
2023-04-06T18:56:53.464Z,4.22
2023-04-06T18:59:30.272Z,3.42
2023-04-06T19:02:05.103Z,4.35
2023-04-06T19:04:37.550Z,3.03
2023-04-06T19:07:09.712Z,3.15
2023-04-06T19:09:41.792Z,2.85
2023-04-06T19:12:13.865Z,3.20
2023-04-06T19:14:51.770Z,7.10
2023-04-06T19:17:27.126Z,4.47
2023-04-06T19:19:59.449Z,3.78
2023-04-06T19:22:31.647Z,3.67
2023-04-06T19:25:04.458Z,5.18
2023-04-06T19:27:36.768Z,4.25
2023-04-06T19:30:10.055Z,4.10
2023-04-06T19:32:44.872Z,4.28
2023-04-06T19:35:17.024Z,5.30
2023-04-06T19:37:49.128Z,5.43
2023-04-06T19:40:21.253Z,4.18
2023-04-06T19:42:53.510Z,5.13
2023-04-06T19:45:25.630Z,4.15
2023-04-06T19:48:00.472Z,5.38
2023-04-06T19:50:32.690Z,6.45
2023-04-06T19:53:05.121Z,4.25
2023-04-06T19:55:37.585Z,3.33
2023-04-06T19:58:09.727Z,5.28
2023-04-06T20:00:41.825Z,7.97
2023-04-06T20:03:16.729Z,5.00
2023-04-06T20:05:48.974Z,4.63
2023-04-06T20:08:22.634Z,5.78
2023-04-06T20:11:00.989Z,4.80
2023-04-06T20:13:33.372Z,4.90
2023-04-06T20:16:05.625Z,4.93
2023-04-06T20:18:40.451Z,2.95
2023-04-06T20:21:12.525Z,4.93
2023-04-06T20:23:44.776Z,6.47
2023-04-06T20:26:17.143Z,7.40
2023-04-06T20:28:49.480Z,8.25
2023-04-06T20:31:25.513Z,3.80
2023-04-06T20:34:00.604Z,5.43
2023-04-06T20:36:34.367Z,4.53
2023-04-06T20:39:07.230Z,5.25
2023-04-06T20:41:39.289Z,5.28
2023-04-06T20:44:11.349Z,5.38
2023-04-06T20:46:45.886Z,6.00
2023-04-06T20:49:23.646Z,4.38
2023-04-06T20:51:55.714Z,4.85
2023-04-06T20:54:29.627Z,4.07
2023-04-06T20:57:02.023Z,5.28
2023-04-06T20:59:34.109Z,5.35
2023-04-06T21:02:06.282Z,6.05
2023-04-06T21:04:41.186Z,4.55
2023-04-06T21:07:13.441Z,6.22
2023-04-06T21:09:45.576Z,4.85
2023-04-06T21:12:17.675Z,5.90
2023-04-06T21:14:49.726Z,5.68
2023-04-06T21:17:22.295Z,7.60
2023-04-06T21:19:56.926Z,6.18
2023-04-06T21:22:29.010Z,6.18
2023-04-06T21:25:01.087Z,4.43
2023-04-06T21:27:33.170Z,5.60
2023-04-06T21:30:06.508Z,5.93
2023-04-06T21:32:38.615Z,6.18
2023-04-06T21:35:13.580Z,5.35
2023-04-06T21:37:45.656Z,4.72
2023-04-06T21:40:19.189Z,7.45
2023-04-06T21:42:51.322Z,4.97
2023-04-06T21:45:23.425Z,7.03
2023-04-06T21:47:55.783Z,6.30
2023-04-06T21:50:30.608Z,5.75
2023-04-06T21:53:02.691Z,5.60
2023-04-06T21:55:35.151Z,5.13
2023-04-06T21:58:07.472Z,6.00
2023-04-06T22:00:39.577Z,5.65
2023-04-06T22:03:11.714Z,7.07
2023-04-06T22:05:46.530Z,11.20
2023-04-06T22:08:32.764Z,7.30
2023-04-06T22:11:11.478Z,6.15
2023-04-06T22:13:44.113Z,6.15
2023-04-06T22:16:18.703Z,5.63
2023-04-06T22:18:50.894Z,6.32
2023-04-06T22:21:26.649Z,5.22
2023-04-06T22:23:58.703Z,5.72
2023-04-06T22:26:30.849Z,5.45
2023-04-06T22:29:02.938Z,9.05
2023-04-06T22:31:34.993Z,6.28
2023-04-06T22:34:07.107Z,7.72
2023-04-06T22:36:41.774Z,7.90
2023-04-06T22:39:13.898Z,7.35
2023-04-06T22:41:46.150Z,5.57
2023-04-06T22:44:18.556Z,7.07
2023-04-06T22:46:50.942Z,6.70
2023-04-06T22:49:23.086Z,5.60
2023-04-06T22:51:57.753Z,7.63
2023-04-06T22:54:30.038Z,6.15
2023-04-06T22:57:03.068Z,5.90
2023-04-06T22:59:35.159Z,6.63
2023-04-06T23:02:07.433Z,7.85
2023-04-06T23:04:39.539Z,7.05
2023-04-06T23:07:15.596Z,7.55
2023-04-06T23:09:47.724Z,7.15
2023-04-06T23:12:19.771Z,6.40
2023-04-06T23:14:51.834Z,7.15
2023-04-06T23:17:24.084Z,9.00
2023-04-06T23:19:56.375Z,7.15
2023-04-06T23:22:31.383Z,9.40
2023-04-06T23:25:03.834Z,9.18
2023-04-06T23:27:36.098Z,7.75
2023-04-06T23:30:09.506Z,7.15
2023-04-06T23:32:41.800Z,8.90
2023-04-06T23:35:14.398Z,7.95
2023-04-06T23:37:49.107Z,8.18
2023-04-06T23:40:21.363Z,8.40
2023-04-06T23:42:53.403Z,10.13
2023-04-06T23:45:25.649Z,10.63
2023-04-06T23:47:57.761Z,10.55
2023-04-06T23:50:29.835Z,9.70
2023-04-06T23:53:04.875Z,10.73
2023-04-06T23:55:37.103Z,13.10
2023-04-06T23:58:09.207Z,11.40
